sensor_id;sensor_type;location;lat;lon;timestamp;P1;durP1;ratioP1;P2;durP2;ratioP2
45368;SDS011;51342;55.250;37.668;2023-09-12T00:01:50;16.95;;;11.50;;
45368;SDS011;51342;55.250;37.668;2023-09-12T00:04:21;18.73;;;12.23;;
45368;SDS011;51342;55.250;37.668;2023-09-12T00:06:52;19.77;;;12.35;;
45368;SDS011;51342;55.250;37.668;2023-09-12T00:09:24;17.50;;;11.73;;
45368;SDS011;51342;55.250;37.668;2023-09-12T00:11:55;16.92;;;11.75;;
45368;SDS011;51342;55.250;37.668;2023-09-12T00:14:26;17.92;;;12.30;;
45368;SDS011;51342;55.250;37.668;2023-09-12T00:16:58;18.83;;;12.10;;
45368;SDS011;51342;55.250;37.668;2023-09-12T00:19:29;20.73;;;13.18;;
45368;SDS011;51342;55.250;37.668;2023-09-12T00:22:00;19.90;;;13.73;;
45368;SDS011;51342;55.250;37.668;2023-09-12T00:24:32;22.65;;;13.38;;
45368;SDS011;51342;55.250;37.668;2023-09-12T00:27:03;20.63;;;13.70;;
45368;SDS011;51342;55.250;37.668;2023-09-12T00:29:36;24.38;;;13.82;;
45368;SDS011;51342;55.250;37.668;2023-09-12T00:32:07;21.63;;;12.98;;
45368;SDS011;51342;55.250;37.668;2023-09-12T00:34:39;20.00;;;12.32;;
45368;SDS011;51342;55.250;37.668;2023-09-12T00:37:10;19.27;;;13.25;;
45368;SDS011;51342;55.250;37.668;2023-09-12T00:39:42;23.65;;;13.90;;
45368;SDS011;51342;55.250;37.668;2023-09-12T00:42:14;23.17;;;13.38;;
45368;SDS011;51342;55.250;37.668;2023-09-12T00:44:45;18.35;;;12.43;;
45368;SDS011;51342;55.250;37.668;2023-09-12T00:47:16;17.67;;;11.95;;
45368;SDS011;51342;55.250;37.668;2023-09-12T00:49:49;20.63;;;13.35;;
45368;SDS011;51342;55.250;37.668;2023-09-12T00:52:22;22.13;;;12.85;;
45368;SDS011;51342;55.250;37.668;2023-09-12T00:54:55;19.60;;;13.02;;
45368;SDS011;51342;55.250;37.668;2023-09-12T00:57:27;19.23;;;12.63;;
45368;SDS011;51342;55.250;37.668;2023-09-12T01:00:02;22.17;;;12.93;;
45368;SDS011;51342;55.250;37.668;2023-09-12T01:02:42;19.23;;;13.18;;
45368;SDS011;51342;55.250;37.668;2023-09-12T01:05:15;17.77;;;13.05;;
45368;SDS011;51342;55.250;37.668;2023-09-12T01:07:47;18.58;;;12.13;;
45368;SDS011;51342;55.250;37.668;2023-09-12T01:10:18;21.65;;;14.15;;
45368;SDS011;51342;55.250;37.668;2023-09-12T01:12:50;21.40;;;13.73;;
45368;SDS011;51342;55.250;37.668;2023-09-12T01:15:23;18.88;;;12.35;;
45368;SDS011;51342;55.250;37.668;2023-09-12T01:17:54;19.58;;;12.98;;
45368;SDS011;51342;55.250;37.668;2023-09-12T01:20:27;17.93;;;12.23;;
45368;SDS011;51342;55.250;37.668;2023-09-12T01:28:26;17.95;;;11.45;;
45368;SDS011;51342;55.250;37.668;2023-09-12T01:31:02;18.40;;;11.70;;
45368;SDS011;51342;55.250;37.668;2023-09-12T01:33:34;18.60;;;12.93;;
45368;SDS011;51342;55.250;37.668;2023-09-12T01:36:06;20.92;;;12.55;;
45368;SDS011;51342;55.250;37.668;2023-09-12T01:38:39;18.67;;;12.27;;
45368;SDS011;51342;55.250;37.668;2023-09-12T01:41:11;20.63;;;13.15;;
45368;SDS011;51342;55.250;37.668;2023-09-12T01:43:43;19.65;;;12.30;;
45368;SDS011;51342;55.250;37.668;2023-09-12T01:46:15;23.17;;;13.30;;
45368;SDS011;51342;55.250;37.668;2023-09-12T01:48:49;20.47;;;12.97;;
45368;SDS011;51342;55.250;37.668;2023-09-12T01:51:22;20.33;;;12.70;;
45368;SDS011;51342;55.250;37.668;2023-09-12T01:53:55;18.08;;;11.88;;
45368;SDS011;51342;55.250;37.668;2023-09-12T01:56:29;21.80;;;12.03;;
45368;SDS011;51342;55.250;37.668;2023-09-12T01:59:02;18.73;;;13.17;;
45368;SDS011;51342;55.250;37.668;2023-09-12T02:01:34;17.70;;;11.90;;
45368;SDS011;51342;55.250;37.668;2023-09-12T02:04:05;19.85;;;11.75;;
45368;SDS011;51342;55.250;37.668;2023-09-12T02:06:39;18.15;;;11.88;;
45368;SDS011;51342;55.250;37.668;2023-09-12T02:09:11;22.87;;;14.10;;
45368;SDS011;51342;55.250;37.668;2023-09-12T02:11:42;20.20;;;13.53;;
45368;SDS011;51342;55.250;37.668;2023-09-12T02:14:13;17.97;;;11.93;;
45368;SDS011;51342;55.250;37.668;2023-09-12T02:16:45;13.97;;;10.90;;
45368;SDS011;51342;55.250;37.668;2023-09-12T02:19:16;18.93;;;12.63;;
45368;SDS011;51342;55.250;37.668;2023-09-12T02:21:47;22.80;;;12.60;;
45368;SDS011;51342;55.250;37.668;2023-09-12T02:24:19;18.00;;;11.93;;
45368;SDS011;51342;55.250;37.668;2023-09-12T02:26:52;21.50;;;13.20;;
45368;SDS011;51342;55.250;37.668;2023-09-12T02:29:23;19.30;;;12.40;;
45368;SDS011;51342;55.250;37.668;2023-09-12T02:31:55;17.83;;;11.90;;
45368;SDS011;51342;55.250;37.668;2023-09-12T02:34:27;17.97;;;12.23;;
45368;SDS011;51342;55.250;37.668;2023-09-12T02:36:58;17.77;;;11.67;;
45368;SDS011;51342;55.250;37.668;2023-09-12T02:39:30;20.80;;;12.80;;
45368;SDS011;51342;55.250;37.668;2023-09-12T02:42:01;18.10;;;11.63;;
45368;SDS011;51342;55.250;37.668;2023-09-12T02:44:33;21.17;;;13.10;;
45368;SDS011;51342;55.250;37.668;2023-09-12T02:47:05;20.80;;;13.10;;
45368;SDS011;51342;55.250;37.668;2023-09-12T02:49:36;21.07;;;13.07;;
45368;SDS011;51342;55.250;37.668;2023-09-12T02:52:07;25.10;;;13.90;;
45368;SDS011;51342;55.250;37.668;2023-09-12T02:54:39;39.50;;;16.50;;
45368;SDS011;51342;55.250;37.668;2023-09-12T02:57:10;23.70;;;13.47;;
45368;SDS011;51342;55.250;37.668;2023-09-12T02:59:41;19.83;;;12.80;;
45368;SDS011;51342;55.250;37.668;2023-09-12T03:02:13;18.87;;;11.97;;
45368;SDS011;51342;55.250;37.668;2023-09-12T03:04:44;20.33;;;13.67;;
45368;SDS011;51342;55.250;37.668;2023-09-12T03:07:16;21.57;;;13.40;;
45368;SDS011;51342;55.250;37.668;2023-09-12T03:09:48;20.10;;;12.80;;
45368;SDS011;51342;55.250;37.668;2023-09-12T03:12:20;18.33;;;11.80;;
45368;SDS011;51342;55.250;37.668;2023-09-12T03:14:52;19.03;;;10.93;;
45368;SDS011;51342;55.250;37.668;2023-09-12T03:17:23;16.57;;;10.03;;
45368;SDS011;51342;55.250;37.668;2023-09-12T03:19:55;15.93;;;10.73;;
45368;SDS011;51342;55.250;37.668;2023-09-12T03:22:27;16.80;;;10.83;;
45368;SDS011;51342;55.250;37.668;2023-09-12T03:24:58;14.80;;;10.97;;
45368;SDS011;51342;55.250;37.668;2023-09-12T03:27:29;15.73;;;10.83;;
45368;SDS011;51342;55.250;37.668;2023-09-12T03:30:01;16.40;;;10.20;;
45368;SDS011;51342;55.250;37.668;2023-09-12T03:32:32;15.07;;;10.13;;
45368;SDS011;51342;55.250;37.668;2023-09-12T03:35:04;15.53;;;10.27;;
45368;SDS011;51342;55.250;37.668;2023-09-12T03:37:36;16.77;;;11.30;;
45368;SDS011;51342;55.250;37.668;2023-09-12T03:40:11;20.70;;;12.83;;
45368;SDS011;51342;55.250;37.668;2023-09-12T03:42:42;17.90;;;11.97;;
45368;SDS011;51342;55.250;37.668;2023-09-12T03:45:15;18.23;;;11.33;;
45368;SDS011;51342;55.250;37.668;2023-09-12T03:47:46;17.73;;;12.03;;
45368;SDS011;51342;55.250;37.668;2023-09-12T03:50:20;20.40;;;12.40;;
45368;SDS011;51342;55.250;37.668;2023-09-12T03:52:52;18.57;;;11.77;;
45368;SDS011;51342;55.250;37.668;2023-09-12T03:55:23;17.77;;;12.77;;
45368;SDS011;51342;55.250;37.668;2023-09-12T03:57:54;20.80;;;12.33;;
45368;SDS011;51342;55.250;37.668;2023-09-12T04:00:26;20.50;;;13.07;;
45368;SDS011;51342;55.250;37.668;2023-09-12T04:02:57;20.97;;;13.60;;
45368;SDS011;51342;55.250;37.668;2023-09-12T04:05:29;20.73;;;13.60;;
45368;SDS011;51342;55.250;37.668;2023-09-12T04:08:00;21.90;;;13.80;;
45368;SDS011;51342;55.250;37.668;2023-09-12T04:10:31;22.50;;;14.53;;
45368;SDS011;51342;55.250;37.668;2023-09-12T04:13:03;19.30;;;13.45;;
45368;SDS011;51342;55.250;37.668;2023-09-12T04:15:34;21.13;;;14.43;;
45368;SDS011;51342;55.250;37.668;2023-09-12T04:18:06;23.58;;;14.63;;
45368;SDS011;51342;55.250;37.668;2023-09-12T04:20:37;21.15;;;14.27;;
45368;SDS011;51342;55.250;37.668;2023-09-12T04:23:09;21.20;;;14.13;;
45368;SDS011;51342;55.250;37.668;2023-09-12T04:25:45;19.35;;;13.52;;
45368;SDS011;51342;55.250;37.668;2023-09-12T04:28:17;19.60;;;13.52;;
45368;SDS011;51342;55.250;37.668;2023-09-12T04:30:48;19.85;;;14.65;;
45368;SDS011;51342;55.250;37.668;2023-09-12T04:33:20;22.50;;;14.57;;
45368;SDS011;51342;55.250;37.668;2023-09-12T04:35:51;23.83;;;15.30;;
45368;SDS011;51342;55.250;37.668;2023-09-12T04:38:22;19.42;;;13.55;;
45368;SDS011;51342;55.250;37.668;2023-09-12T04:40:55;24.15;;;15.23;;
45368;SDS011;51342;55.250;37.668;2023-09-12T04:43:28;19.42;;;13.93;;
45368;SDS011;51342;55.250;37.668;2023-09-12T04:45:59;20.98;;;15.10;;
45368;SDS011;51342;55.250;37.668;2023-09-12T04:48:31;21.45;;;15.05;;
45368;SDS011;51342;55.250;37.668;2023-09-12T04:51:02;22.67;;;15.98;;
45368;SDS011;51342;55.250;37.668;2023-09-12T04:53:33;24.48;;;15.32;;
45368;SDS011;51342;55.250;37.668;2023-09-12T04:56:07;24.33;;;16.25;;
45368;SDS011;51342;55.250;37.668;2023-09-12T04:58:40;23.08;;;15.85;;
45368;SDS011;51342;55.250;37.668;2023-09-12T05:01:12;23.75;;;15.48;;
45368;SDS011;51342;55.250;37.668;2023-09-12T05:03:43;24.60;;;15.63;;
45368;SDS011;51342;55.250;37.668;2023-09-12T05:06:15;25.00;;;16.77;;
45368;SDS011;51342;55.250;37.668;2023-09-12T05:08:46;27.58;;;17.60;;
45368;SDS011;51342;55.250;37.668;2023-09-12T05:11:18;29.60;;;17.63;;
45368;SDS011;51342;55.250;37.668;2023-09-12T05:13:49;24.30;;;18.23;;
45368;SDS011;51342;55.250;37.668;2023-09-12T05:16:21;25.92;;;17.20;;
45368;SDS011;51342;55.250;37.668;2023-09-12T05:18:52;25.05;;;16.52;;
45368;SDS011;51342;55.250;37.668;2023-09-12T05:21:25;22.50;;;16.15;;
45368;SDS011;51342;55.250;37.668;2023-09-12T05:23:57;22.40;;;16.08;;
45368;SDS011;51342;55.250;37.668;2023-09-12T05:26:28;23.50;;;16.50;;
45368;SDS011;51342;55.250;37.668;2023-09-12T05:28:59;21.63;;;14.98;;
45368;SDS011;51342;55.250;37.668;2023-09-12T05:31:31;21.90;;;15.77;;
45368;SDS011;51342;55.250;37.668;2023-09-12T05:34:02;21.20;;;14.90;;
45368;SDS011;51342;55.250;37.668;2023-09-12T05:36:34;21.88;;;14.85;;
45368;SDS011;51342;55.250;37.668;2023-09-12T05:39:05;20.63;;;14.90;;
45368;SDS011;51342;55.250;37.668;2023-09-12T05:41:36;21.75;;;15.85;;
45368;SDS011;51342;55.250;37.668;2023-09-12T05:44:08;21.77;;;16.35;;
45368;SDS011;51342;55.250;37.668;2023-09-12T05:46:40;20.80;;;14.90;;
45368;SDS011;51342;55.250;37.668;2023-09-12T05:49:12;22.05;;;15.20;;
45368;SDS011;51342;55.250;37.668;2023-09-12T05:51:43;21.77;;;15.75;;
45368;SDS011;51342;55.250;37.668;2023-09-12T05:54:15;22.25;;;15.93;;
45368;SDS011;51342;55.250;37.668;2023-09-12T05:56:46;25.17;;;15.57;;
45368;SDS011;51342;55.250;37.668;2023-09-12T05:59:19;22.23;;;16.15;;
45368;SDS011;51342;55.250;37.668;2023-09-12T06:01:50;24.20;;;17.65;;
45368;SDS011;51342;55.250;37.668;2023-09-12T06:04:23;24.45;;;17.50;;
45368;SDS011;51342;55.250;37.668;2023-09-12T06:06:54;22.27;;;16.50;;
45368;SDS011;51342;55.250;37.668;2023-09-12T06:09:26;22.52;;;16.73;;
45368;SDS011;51342;55.250;37.668;2023-09-12T06:11:57;23.00;;;15.50;;
45368;SDS011;51342;55.250;37.668;2023-09-12T06:14:28;23.67;;;16.55;;
45368;SDS011;51342;55.250;37.668;2023-09-12T06:17:00;21.33;;;15.68;;
45368;SDS011;51342;55.250;37.668;2023-09-12T06:19:31;21.33;;;15.10;;
45368;SDS011;51342;55.250;37.668;2023-09-12T06:22:02;20.77;;;15.50;;
45368;SDS011;51342;55.250;37.668;2023-09-12T06:24:34;21.30;;;15.55;;
45368;SDS011;51342;55.250;37.668;2023-09-12T06:27:05;22.77;;;15.35;;
45368;SDS011;51342;55.250;37.668;2023-09-12T06:29:37;20.00;;;15.30;;
45368;SDS011;51342;55.250;37.668;2023-09-12T06:32:08;23.02;;;15.63;;
45368;SDS011;51342;55.250;37.668;2023-09-12T06:34:40;21.85;;;15.07;;
45368;SDS011;51342;55.250;37.668;2023-09-12T06:37:12;20.63;;;16.48;;
45368;SDS011;51342;55.250;37.668;2023-09-12T06:39:43;21.48;;;16.52;;
45368;SDS011;51342;55.250;37.668;2023-09-12T06:42:14;20.20;;;15.68;;
45368;SDS011;51342;55.250;37.668;2023-09-12T06:44:46;20.52;;;15.38;;
45368;SDS011;51342;55.250;37.668;2023-09-12T06:47:17;17.65;;;13.93;;
45368;SDS011;51342;55.250;37.668;2023-09-12T06:49:48;24.05;;;16.95;;
45368;SDS011;51342;55.250;37.668;2023-09-12T06:52:20;19.77;;;15.32;;
45368;SDS011;51342;55.250;37.668;2023-09-12T06:54:51;19.55;;;15.18;;
45368;SDS011;51342;55.250;37.668;2023-09-12T06:57:22;19.75;;;15.45;;
45368;SDS011;51342;55.250;37.668;2023-09-12T06:59:54;17.58;;;13.10;;
45368;SDS011;51342;55.250;37.668;2023-09-12T07:02:26;17.90;;;14.40;;
45368;SDS011;51342;55.250;37.668;2023-09-12T07:04:57;19.48;;;14.70;;
45368;SDS011;51342;55.250;37.668;2023-09-12T07:07:29;19.45;;;13.50;;
45368;SDS011;51342;55.250;37.668;2023-09-12T07:10:01;16.95;;;13.50;;
45368;SDS011;51342;55.250;37.668;2023-09-12T07:12:32;14.93;;;12.15;;
45368;SDS011;51342;55.250;37.668;2023-09-12T07:15:05;20.23;;;14.95;;
45368;SDS011;51342;55.250;37.668;2023-09-12T07:17:36;15.60;;;12.80;;
45368;SDS011;51342;55.250;37.668;2023-09-12T07:20:08;18.08;;;14.05;;
45368;SDS011;51342;55.250;37.668;2023-09-12T07:22:42;17.77;;;13.00;;
45368;SDS011;51342;55.250;37.668;2023-09-12T07:25:13;18.45;;;13.80;;
45368;SDS011;51342;55.250;37.668;2023-09-12T07:27:45;16.58;;;12.93;;
45368;SDS011;51342;55.250;37.668;2023-09-12T07:30:17;14.85;;;12.30;;
45368;SDS011;51342;55.250;37.668;2023-09-12T07:32:48;14.32;;;11.88;;
45368;SDS011;51342;55.250;37.668;2023-09-12T07:35:21;15.02;;;11.57;;
45368;SDS011;51342;55.250;37.668;2023-09-12T07:37:54;13.70;;;11.48;;
45368;SDS011;51342;55.250;37.668;2023-09-12T07:40:26;15.13;;;11.85;;
45368;SDS011;51342;55.250;37.668;2023-09-12T07:42:57;14.68;;;11.15;;
45368;SDS011;51342;55.250;37.668;2023-09-12T07:45:28;12.75;;;9.93;;
45368;SDS011;51342;55.250;37.668;2023-09-12T07:48:02;13.05;;;10.60;;
45368;SDS011;51342;55.250;37.668;2023-09-12T07:50:37;13.05;;;10.80;;
45368;SDS011;51342;55.250;37.668;2023-09-12T07:53:09;15.45;;;11.25;;
45368;SDS011;51342;55.250;37.668;2023-09-12T07:55:40;14.70;;;10.93;;
45368;SDS011;51342;55.250;37.668;2023-09-12T07:58:16;14.43;;;11.20;;
45368;SDS011;51342;55.250;37.668;2023-09-12T08:00:54;11.93;;;10.15;;
45368;SDS011;51342;55.250;37.668;2023-09-12T08:03:26;12.95;;;10.85;;
45368;SDS011;51342;55.250;37.668;2023-09-12T08:05:58;14.73;;;10.77;;
45368;SDS011;51342;55.250;37.668;2023-09-12T08:08:29;12.43;;;10.25;;
45368;SDS011;51342;55.250;37.668;2023-09-12T08:11:01;10.75;;;8.70;;
45368;SDS011;51342;55.250;37.668;2023-09-12T08:13:33;11.68;;;9.38;;
45368;SDS011;51342;55.250;37.668;2023-09-12T08:16:04;11.70;;;9.32;;
45368;SDS011;51342;55.250;37.668;2023-09-12T08:18:35;12.68;;;10.40;;
45368;SDS011;51342;55.250;37.668;2023-09-12T08:21:07;12.32;;;9.77;;
45368;SDS011;51342;55.250;37.668;2023-09-12T08:23:38;12.75;;;9.65;;
45368;SDS011;51342;55.250;37.668;2023-09-12T08:26:10;13.30;;;10.13;;
45368;SDS011;51342;55.250;37.668;2023-09-12T08:28:41;13.27;;;9.77;;
45368;SDS011;51342;55.250;37.668;2023-09-12T08:31:13;10.52;;;8.88;;
45368;SDS011;51342;55.250;37.668;2023-09-12T08:33:44;12.57;;;9.35;;
45368;SDS011;51342;55.250;37.668;2023-09-12T08:36:16;11.50;;;8.30;;
45368;SDS011;51342;55.250;37.668;2023-09-12T08:38:47;8.80;;;7.05;;
45368;SDS011;51342;55.250;37.668;2023-09-12T08:41:18;9.15;;;7.03;;
45368;SDS011;51342;55.250;37.668;2023-09-12T08:43:50;8.63;;;7.13;;
45368;SDS011;51342;55.250;37.668;2023-09-12T08:46:21;8.60;;;7.65;;
45368;SDS011;51342;55.250;37.668;2023-09-12T08:48:56;8.88;;;7.60;;
45368;SDS011;51342;55.250;37.668;2023-09-12T08:51:28;10.88;;;7.57;;
45368;SDS011;51342;55.250;37.668;2023-09-12T08:53:59;8.65;;;7.45;;
45368;SDS011;51342;55.250;37.668;2023-09-12T08:56:35;10.02;;;7.55;;
45368;SDS011;51342;55.250;37.668;2023-09-12T08:59:07;9.77;;;7.78;;
45368;SDS011;51342;55.250;37.668;2023-09-12T09:01:41;13.27;;;7.43;;
45368;SDS011;51342;55.250;37.668;2023-09-12T09:04:14;11.85;;;7.13;;
45368;SDS011;51342;55.250;37.668;2023-09-12T09:06:46;9.63;;;7.47;;
45368;SDS011;51342;55.250;37.668;2023-09-12T09:09:18;7.82;;;7.03;;
45368;SDS011;51342;55.250;37.668;2023-09-12T09:11:50;12.15;;;7.38;;
45368;SDS011;51342;55.250;37.668;2023-09-12T09:14:21;9.65;;;8.02;;
45368;SDS011;51342;55.250;37.668;2023-09-12T09:16:53;10.48;;;8.35;;
45368;SDS011;51342;55.250;37.668;2023-09-12T09:19:41;9.73;;;7.80;;
45368;SDS011;51342;55.250;37.668;2023-09-12T09:22:13;10.18;;;7.75;;
45368;SDS011;51342;55.250;37.668;2023-09-12T09:24:45;9.18;;;7.75;;
45368;SDS011;51342;55.250;37.668;2023-09-12T09:27:32;8.45;;;7.55;;
45368;SDS011;51342;55.250;37.668;2023-09-12T09:30:04;8.95;;;7.68;;
45368;SDS011;51342;55.250;37.668;2023-09-12T09:32:36;9.05;;;7.00;;
45368;SDS011;51342;55.250;37.668;2023-09-12T09:35:08;9.02;;;7.57;;
45368;SDS011;51342;55.250;37.668;2023-09-12T09:37:41;8.50;;;6.75;;
45368;SDS011;51342;55.250;37.668;2023-09-12T09:40:13;8.27;;;6.40;;
45368;SDS011;51342;55.250;37.668;2023-09-12T09:42:44;7.30;;;6.45;;
45368;SDS011;51342;55.250;37.668;2023-09-12T09:45:15;7.00;;;6.28;;
45368;SDS011;51342;55.250;37.668;2023-09-12T09:47:49;8.18;;;7.07;;
45368;SDS011;51342;55.250;37.668;2023-09-12T09:50:21;9.02;;;6.70;;
45368;SDS011;51342;55.250;37.668;2023-09-12T09:52:53;8.35;;;6.97;;
45368;SDS011;51342;55.250;37.668;2023-09-12T09:55:26;8.77;;;6.93;;
45368;SDS011;51342;55.250;37.668;2023-09-12T09:57:58;9.75;;;6.85;;
45368;SDS011;51342;55.250;37.668;2023-09-12T10:00:29;7.43;;;6.40;;
45368;SDS011;51342;55.250;37.668;2023-09-12T10:03:04;6.95;;;6.05;;
45368;SDS011;51342;55.250;37.668;2023-09-12T10:05:37;9.10;;;6.57;;
45368;SDS011;51342;55.250;37.668;2023-09-12T10:08:09;7.65;;;6.47;;
45368;SDS011;51342;55.250;37.668;2023-09-12T10:10:42;7.97;;;6.43;;
45368;SDS011;51342;55.250;37.668;2023-09-12T10:13:14;9.20;;;6.47;;
45368;SDS011;51342;55.250;37.668;2023-09-12T10:15:47;7.82;;;6.32;;
45368;SDS011;51342;55.250;37.668;2023-09-12T10:18:22;9.63;;;6.75;;
45368;SDS011;51342;55.250;37.668;2023-09-12T10:20:58;7.18;;;6.32;;
45368;SDS011;51342;55.250;37.668;2023-09-12T10:23:38;7.70;;;6.18;;
45368;SDS011;51342;55.250;37.668;2023-09-12T10:26:14;8.70;;;6.65;;
45368;SDS011;51342;55.250;37.668;2023-09-12T10:28:46;9.60;;;6.80;;
45368;SDS011;51342;55.250;37.668;2023-09-12T10:31:18;8.95;;;6.28;;
45368;SDS011;51342;55.250;37.668;2023-09-12T10:33:50;7.03;;;6.32;;
45368;SDS011;51342;55.250;37.668;2023-09-12T10:36:22;8.52;;;6.88;;
45368;SDS011;51342;55.250;37.668;2023-09-12T10:38:56;6.88;;;5.90;;
45368;SDS011;51342;55.250;37.668;2023-09-12T10:41:30;8.20;;;6.22;;
45368;SDS011;51342;55.250;37.668;2023-09-12T10:44:01;8.25;;;6.20;;
45368;SDS011;51342;55.250;37.668;2023-09-12T10:46:40;8.52;;;6.63;;
45368;SDS011;51342;55.250;37.668;2023-09-12T10:49:13;9.23;;;6.40;;
45368;SDS011;51342;55.250;37.668;2023-09-12T10:51:46;10.13;;;6.90;;
45368;SDS011;51342;55.250;37.668;2023-09-12T10:54:25;7.68;;;5.93;;
45368;SDS011;51342;55.250;37.668;2023-09-12T10:57:17;6.57;;;5.85;;
45368;SDS011;51342;55.250;37.668;2023-09-12T11:02:33;6.78;;;5.80;;
45368;SDS011;51342;55.250;37.668;2023-09-12T11:05:06;6.63;;;5.10;;
45368;SDS011;51342;55.250;37.668;2023-09-12T11:07:59;7.30;;;5.40;;
45368;SDS011;51342;55.250;37.668;2023-09-12T11:10:31;7.82;;;5.60;;
45368;SDS011;51342;55.250;37.668;2023-09-12T11:13:03;6.22;;;5.60;;
45368;SDS011;51342;55.250;37.668;2023-09-12T11:15:34;6.30;;;5.43;;
45368;SDS011;51342;55.250;37.668;2023-09-12T11:18:05;7.70;;;5.38;;
45368;SDS011;51342;55.250;37.668;2023-09-12T11:20:59;6.57;;;5.80;;
45368;SDS011;51342;55.250;37.668;2023-09-12T11:23:34;6.38;;;5.55;;
45368;SDS011;51342;55.250;37.668;2023-09-12T11:26:06;8.27;;;5.93;;
45368;SDS011;51342;55.250;37.668;2023-09-12T11:28:41;6.78;;;5.63;;
45368;SDS011;51342;55.250;37.668;2023-09-12T11:31:25;7.32;;;5.90;;
45368;SDS011;51342;55.250;37.668;2023-09-12T11:34:00;8.30;;;6.43;;
45368;SDS011;51342;55.250;37.668;2023-09-12T11:36:37;8.50;;;6.40;;
45368;SDS011;51342;55.250;37.668;2023-09-12T11:39:25;7.18;;;5.90;;
45368;SDS011;51342;55.250;37.668;2023-09-12T11:42:01;7.80;;;5.40;;
45368;SDS011;51342;55.250;37.668;2023-09-12T11:44:34;6.72;;;5.80;;
45368;SDS011;51342;55.250;37.668;2023-09-12T11:47:05;5.97;;;5.20;;
45368;SDS011;51342;55.250;37.668;2023-09-12T11:49:39;8.07;;;5.88;;
45368;SDS011;51342;55.250;37.668;2023-09-12T11:52:12;6.82;;;5.43;;
45368;SDS011;51342;55.250;37.668;2023-09-12T11:54:45;7.78;;;6.07;;
45368;SDS011;51342;55.250;37.668;2023-09-12T11:57:16;8.82;;;5.63;;
45368;SDS011;51342;55.250;37.668;2023-09-12T11:59:48;7.22;;;5.18;;
45368;SDS011;51342;55.250;37.668;2023-09-12T12:02:20;6.43;;;4.95;;
45368;SDS011;51342;55.250;37.668;2023-09-12T12:04:51;10.05;;;5.68;;
45368;SDS011;51342;55.250;37.668;2023-09-12T12:07:24;6.72;;;5.43;;
45368;SDS011;51342;55.250;37.668;2023-09-12T12:09:56;6.75;;;5.70;;
45368;SDS011;51342;55.250;37.668;2023-09-12T12:12:27;7.15;;;5.72;;
45368;SDS011;51342;55.250;37.668;2023-09-12T12:14:58;7.78;;;6.18;;
45368;SDS011;51342;55.250;37.668;2023-09-12T12:17:30;8.80;;;6.13;;
45368;SDS011;51342;55.250;37.668;2023-09-12T12:20:01;6.32;;;5.32;;
45368;SDS011;51342;55.250;37.668;2023-09-12T12:22:38;7.13;;;5.30;;
45368;SDS011;51342;55.250;37.668;2023-09-12T12:25:11;8.40;;;5.35;;
45368;SDS011;51342;55.250;37.668;2023-09-12T12:27:42;7.55;;;5.20;;
45368;SDS011;51342;55.250;37.668;2023-09-12T12:30:14;6.00;;;5.40;;
45368;SDS011;51342;55.250;37.668;2023-09-12T12:32:46;5.47;;;4.78;;
45368;SDS011;51342;55.250;37.668;2023-09-12T12:35:19;6.45;;;5.15;;
45368;SDS011;51342;55.250;37.668;2023-09-12T12:37:53;7.45;;;5.60;;
45368;SDS011;51342;55.250;37.668;2023-09-12T12:40:26;7.68;;;6.07;;
45368;SDS011;51342;55.250;37.668;2023-09-12T12:42:58;7.53;;;5.32;;
45368;SDS011;51342;55.250;37.668;2023-09-12T12:45:30;10.65;;;5.57;;
45368;SDS011;51342;55.250;37.668;2023-09-12T12:48:01;11.45;;;8.93;;
45368;SDS011;51342;55.250;37.668;2023-09-12T12:50:35;11.48;;;8.93;;
45368;SDS011;51342;55.250;37.668;2023-09-12T12:53:07;10.18;;;7.80;;
45368;SDS011;51342;55.250;37.668;2023-09-12T12:55:38;8.40;;;7.03;;
45368;SDS011;51342;55.250;37.668;2023-09-12T12:58:09;9.48;;;7.32;;
45368;SDS011;51342;55.250;37.668;2023-09-12T13:00:41;10.20;;;7.40;;
45368;SDS011;51342;55.250;37.668;2023-09-12T13:03:12;8.48;;;7.13;;
45368;SDS011;51342;55.250;37.668;2023-09-12T13:05:44;11.73;;;7.45;;
45368;SDS011;51342;55.250;37.668;2023-09-12T13:08:15;9.65;;;7.65;;
45368;SDS011;51342;55.250;37.668;2023-09-12T13:10:47;8.45;;;6.22;;
45368;SDS011;51342;55.250;37.668;2023-09-12T13:13:18;8.77;;;5.40;;
45368;SDS011;51342;55.250;37.668;2023-09-12T13:15:49;8.40;;;5.82;;
45368;SDS011;51342;55.250;37.668;2023-09-12T13:18:21;8.43;;;6.10;;
45368;SDS011;51342;55.250;37.668;2023-09-12T13:20:52;7.03;;;6.30;;
45368;SDS011;51342;55.250;37.668;2023-09-12T13:23:24;7.72;;;6.60;;
45368;SDS011;51342;55.250;37.668;2023-09-12T13:25:56;7.57;;;6.30;;
45368;SDS011;51342;55.250;37.668;2023-09-12T13:28:28;7.15;;;6.38;;
45368;SDS011;51342;55.250;37.668;2023-09-12T13:31:00;10.15;;;7.25;;
45368;SDS011;51342;55.250;37.668;2023-09-12T13:33:31;7.18;;;5.43;;
45368;SDS011;51342;55.250;37.668;2023-09-12T13:36:02;6.55;;;5.60;;
45368;SDS011;51342;55.250;37.668;2023-09-12T13:38:34;6.65;;;5.45;;
45368;SDS011;51342;55.250;37.668;2023-09-12T13:41:06;7.22;;;5.55;;
45368;SDS011;51342;55.250;37.668;2023-09-12T13:43:37;7.63;;;4.85;;
45368;SDS011;51342;55.250;37.668;2023-09-12T13:46:08;6.47;;;5.07;;
45368;SDS011;51342;55.250;37.668;2023-09-12T13:48:41;7.47;;;5.00;;
45368;SDS011;51342;55.250;37.668;2023-09-12T13:51:12;5.90;;;5.05;;
45368;SDS011;51342;55.250;37.668;2023-09-12T13:53:44;5.75;;;4.90;;
45368;SDS011;51342;55.250;37.668;2023-09-12T13:56:15;9.48;;;7.10;;
45368;SDS011;51342;55.250;37.668;2023-09-12T13:58:46;7.63;;;5.55;;
45368;SDS011;51342;55.250;37.668;2023-09-12T14:01:18;6.85;;;5.75;;
45368;SDS011;51342;55.250;37.668;2023-09-12T14:03:51;7.35;;;5.07;;
45368;SDS011;51342;55.250;37.668;2023-09-12T14:06:24;5.90;;;5.28;;
45368;SDS011;51342;55.250;37.668;2023-09-12T14:08:55;12.48;;;6.82;;
45368;SDS011;51342;55.250;37.668;2023-09-12T14:11:26;7.05;;;5.85;;
45368;SDS011;51342;55.250;37.668;2023-09-12T14:13:58;7.40;;;5.50;;
45368;SDS011;51342;55.250;37.668;2023-09-12T14:16:29;7.95;;;5.72;;
45368;SDS011;51342;55.250;37.668;2023-09-12T14:19:01;7.00;;;5.30;;
45368;SDS011;51342;55.250;37.668;2023-09-12T14:21:32;6.82;;;5.47;;
45368;SDS011;51342;55.250;37.668;2023-09-12T14:24:04;6.78;;;5.10;;
45368;SDS011;51342;55.250;37.668;2023-09-12T14:26:36;6.22;;;5.03;;
45368;SDS011;51342;55.250;37.668;2023-09-12T14:29:07;5.88;;;4.72;;
45368;SDS011;51342;55.250;37.668;2023-09-12T14:31:39;7.00;;;5.10;;
45368;SDS011;51342;55.250;37.668;2023-09-12T14:34:10;7.70;;;5.63;;
45368;SDS011;51342;55.250;37.668;2023-09-12T14:36:45;9.30;;;5.88;;
45368;SDS011;51342;55.250;37.668;2023-09-12T14:39:17;10.45;;;5.50;;
45368;SDS011;51342;55.250;37.668;2023-09-12T14:41:48;9.13;;;5.65;;
45368;SDS011;51342;55.250;37.668;2023-09-12T14:46:56;9.70;;;6.15;;
45368;SDS011;51342;55.250;37.668;2023-09-12T14:49:28;8.20;;;5.88;;
45368;SDS011;51342;55.250;37.668;2023-09-12T14:51:59;9.95;;;6.55;;
45368;SDS011;51342;55.250;37.668;2023-09-12T14:54:30;9.68;;;5.80;;
45368;SDS011;51342;55.250;37.668;2023-09-12T14:57:02;7.78;;;6.05;;
45368;SDS011;51342;55.250;37.668;2023-09-12T14:59:33;9.52;;;6.20;;